Time;durP1;ratioP1;P1;durP2;ratioP2;P2;SDS_P1;SDS_P2;PMS_P1;PMS_P2;Temp;Humidity;BMP_temperature;BMP_pressure;BME280_temperature;BME280_humidity;BME280_pressure;Samples;Min_cycle;Max_cycle;Signal;HPM_P1;HPM_P2
2022/06/13 00:00:59;;;;;;;10.52;3.53;;;15.50;93.40;;;;;;5030196;28;20076;-34
2022/06/13 00:03:26;;;;;;;10.65;3.88;;;15.50;93.50;;;;;;5031603;28;20042;-34
2022/06/13 00:05:54;;;;;;;13.25;3.60;;;15.50;93.40;;;;;;5030856;28;20151;-34
2022/06/13 00:08:21;;;;;;;14.05;4.25;;;15.50;93.30;;;;;;5030954;28;20104;-35
2022/06/13 00:10:48;;;;;;;10.68;3.60;;;15.50;93.80;;;;;;5029816;28;20053;-35
2022/06/13 00:13:15;;;;;;;11.40;3.38;;;15.50;93.80;;;;;;5034871;28;20480;-34
2022/06/13 00:15:42;;;;;;;10.27;3.97;;;15.40;93.70;;;;;;5034405;28;20469;-34
2022/06/13 00:18:08;;;;;;;14.30;4.75;;;15.40;93.70;;;;;;5034693;28;20057;-35
2022/06/13 00:20:35;;;;;;;17.33;5.13;;;15.40;94.20;;;;;;5033672;28;20085;-35
2022/06/13 00:23:03;;;;;;;14.88;4.65;;;15.40;94.40;;;;;;5033382;28;20080;-34
2022/06/13 00:25:30;;;;;;;15.10;4.85;;;15.30;94.60;;;;;;5034348;28;20096;-34
2022/06/13 00:27:57;;;;;;;15.80;4.70;;;15.30;94.80;;;;;;5033300;28;20137;-34
2022/06/13 00:30:24;;;;;;;12.20;4.43;;;15.30;94.80;;;;;;5034699;28;20129;-33
2022/06/13 00:32:51;;;;;;;11.88;4.47;;;15.20;94.50;;;;;;5033256;28;20061;-33
2022/06/13 00:35:18;;;;;;;14.95;3.70;;;15.20;94.60;;;;;;5034718;28;20061;-34
2022/06/13 00:37:45;;;;;;;15.10;4.75;;;15.20;94.40;;;;;;5032984;28;20053;-34
2022/06/13 00:40:13;;;;;;;18.83;5.50;;;15.20;94.80;;;;;;5023599;28;20099;-34
2022/06/13 00:42:40;;;;;;;11.52;4.50;;;15.20;95.30;;;;;;5034624;28;20272;-34
2022/06/13 00:45:13;;;;;;;17.17;5.00;;;15.20;95.00;;;;;;5030645;28;20124;-34
2022/06/13 00:47:41;;;;;;;15.35;4.93;;;15.20;95.50;;;;;;5029748;28;20104;-33
2022/06/13 00:50:09;;;;;;;20.38;5.95;;;15.10;95.50;;;;;;5026058;28;20081;-33
2022/06/13 00:52:41;;;;;;;20.58;5.95;;;15.10;95.80;;;;;;5033728;28;20089;-33
2022/06/13 00:55:09;;;;;;;;;;;15.10;96.10;;;;;;5032877;28;20054;-34
2022/06/13 00:57:37;;;;;;;15.73;5.43;;;15.00;94.90;;;;;;5032820;28;20356;-34
2022/06/13 01:00:07;;;;;;;21.73;4.50;;;15.00;95.90;;;;;;5033437;28;20045;-33
2022/06/13 01:02:34;;;;;;;22.30;5.20;;;15.00;95.60;;;;;;5030804;28;20084;-33
2022/06/13 01:05:00;;;;;;;16.15;5.20;;;15.00;95.80;;;;;;5034161;28;20093;-33
2022/06/13 01:07:28;;;;;;;14.13;5.00;;;15.00;96.20;;;;;;5034527;28;20093;-33
2022/06/13 01:12:40;;;;;;;16.60;4.88;;;15.00;96.30;;;;;;5031835;28;20081;-33
2022/06/13 01:15:12;;;;;;;12.23;4.53;;;15.00;96.10;;;;;;5033125;28;20091;-33
2022/06/13 01:17:45;;;;;;;14.20;5.18;;;15.00;96.00;;;;;;5032689;28;20041;-34
2022/06/13 01:20:40;;;;;;;15.32;5.00;;;15.00;96.40;;;;;;5032217;28;20563;-34
2022/06/13 01:23:40;;;;;;;17.35;5.38;;;15.00;95.90;;;;;;5026391;28;20516;-33
2022/06/13 01:26:48;;;;;;;11.38;4.63;;;15.00;96.00;;;;;;5034303;28;20046;-33
2022/06/13 01:29:40;;;;;;;15.77;5.93;;;15.00;96.00;;;;;;5031541;28;20064;-33
2022/06/13 01:32:10;;;;;;;;;;;14.90;96.40;;;;;;5033130;28;20140;-34
2022/06/13 01:34:40;;;;;;;10.10;4.03;;;14.90;95.90;;;;;;5031124;28;19952;-33
2022/06/13 01:37:11;;;;;;;14.45;4.47;;;14.90;96.30;;;;;;5030325;28;20585;-33
2022/06/13 01:39:45;;;;;;;14.07;5.57;;;14.90;96.40;;;;;;5021994;28;20501;-34
2022/06/13 01:42:27;;;;;;;15.32;5.15;;;14.90;96.30;;;;;;5029216;28;20553;-33
2022/06/13 01:44:54;;;;;;;;;;;14.90;96.50;;;;;;5021019;28;20041;-34
2022/06/13 01:47:25;;;;;;;14.70;4.90;;;14.90;95.50;;;;;;5031101;28;20434;-33
2022/06/13 01:49:56;;;;;;;17.10;5.57;;;14.90;96.50;;;;;;5032141;28;20520;-33
2022/06/13 01:52:28;;;;;;;15.93;5.38;;;14.90;96.80;;;;;;5016326;28;20080;-34
2022/06/13 01:54:57;;;;;;;14.23;6.10;;;14.90;97.10;;;;;;5018489;28;20516;-34
2022/06/13 01:57:28;;;;;;;14.82;6.20;;;14.90;97.40;;;;;;5030004;28;20460;-34
2022/06/13 01:59:58;;;;;;;11.05;4.47;;;14.90;97.30;;;;;;5032157;28;20125;-34
2022/06/13 02:02:31;;;;;;;11.73;5.15;;;14.90;97.00;;;;;;5047369;28;20057;-35
2022/06/13 02:05:00;;;;;;;14.93;6.18;;;14.90;97.10;;;;;;5031358;28;20112;-34
2022/06/13 02:07:28;;;;;;;15.05;5.13;;;14.90;97.40;;;;;;5032843;28;20504;-34
2022/06/13 02:09:59;;;;;;;13.80;5.55;;;14.90;97.50;;;;;;5031903;28;20112;-34
2022/06/13 02:12:27;;;;;;;9.73;4.32;;;14.90;97.30;;;;;;5033373;28;20500;-33
2022/06/13 02:14:57;;;;;;;14.18;6.07;;;14.90;97.10;;;;;;5032662;28;20132;-34
2022/06/13 02:17:27;;;;;;;16.27;5.55;;;14.90;97.30;;;;;;5029338;28;20136;-34
2022/06/13 02:19:56;;;;;;;11.40;5.00;;;14.90;97.50;;;;;;5030942;28;20061;-38
2022/06/13 02:22:25;;;;;;;12.00;5.25;;;14.90;97.30;;;;;;5032913;28;20080;-34
2022/06/13 02:24:53;;;;;;;18.67;6.50;;;14.90;97.50;;;;;;5029022;28;20143;-33
2022/06/13 02:27:20;;;;;;;13.98;5.40;;;14.90;97.80;;;;;;5031683;28;20552;-33
2022/06/13 02:29:50;;;;;;;12.90;4.85;;;14.90;97.70;;;;;;5030498;28;20046;-34
2022/06/13 02:32:17;;;;;;;14.45;5.97;;;14.90;97.50;;;;;;5032865;28;20140;-34
2022/06/13 02:34:46;;;;;;;17.40;5.85;;;14.80;97.30;;;;;;5030083;28;20085;-33
2022/06/13 02:37:17;;;;;;;10.18;4.70;;;14.80;97.40;;;;;;5030863;28;20056;-33
2022/06/13 02:39:52;;;;;;;19.23;6.43;;;14.80;97.40;;;;;;5031350;28;20132;-33
2022/06/13 02:42:20;;;;;;;17.70;6.97;;;14.80;97.80;;;;;;5029134;28;20524;-34
2022/06/13 02:44:53;;;;;;;12.73;5.10;;;14.80;98.30;;;;;;5030597;28;20053;-34
2022/06/13 02:47:23;;;;;;;15.70;5.78;;;14.70;98.00;;;;;;5031972;28;20057;-34
2022/06/13 02:49:51;;;;;;;14.35;6.45;;;14.70;98.10;;;;;;5030549;28;20164;-34
2022/06/13 02:52:23;;;;;;;15.07;5.78;;;14.70;98.40;;;;;;5031199;28;20117;-34
2022/06/13 02:54:51;;;;;;;14.55;5.85;;;14.70;98.50;;;;;;5027728;28;20076;-34
2022/06/13 02:57:40;;;;;;;17.25;6.88;;;14.70;98.70;;;;;;5031006;28;20111;-34
2022/06/13 03:00:21;;;;;;;20.83;7.10;;;14.70;98.60;;;;;;5028963;28;20603;-34
2022/06/13 03:02:57;;;;;;;21.20;7.15;;;14.70;98.90;;;;;;5026202;28;20054;-34
2022/06/13 03:05:37;;;;;;;15.23;7.00;;;14.70;99.30;;;;;;5030986;28;20049;-34
2022/06/13 03:08:11;;;;;;;17.38;6.03;;;14.70;99.40;;;;;;5031244;28;20084;-34
2022/06/13 03:10:41;;;;;;;15.45;6.75;;;14.60;99.30;;;;;;5023193;28;20053;-34
2022/06/13 03:13:11;;;;;;;16.98;7.07;;;14.70;99.70;;;;;;5030555;28;20132;-34
2022/06/13 03:15:44;;;;;;;20.42;7.50;;;14.60;99.80;;;;;;5031541;28;20087;-34
2022/06/13 03:18:13;;;;;;;17.35;7.63;;;14.60;99.90;;;;;;5030562;28;20069;-34
2022/06/13 03:20:42;;;;;;;17.35;7.22;;;14.60;99.90;;;;;;5031443;28;20053;-35
2022/06/13 03:23:12;;;;;;;12.63;6.20;;;14.60;99.90;;;;;;5031108;28;20042;-33
2022/06/13 03:25:40;;;;;;;17.67;6.93;;;14.60;99.90;;;;;;5030929;28;20045;-33
2022/06/13 03:28:09;;;;;;;19.05;6.95;;;14.60;99.90;;;;;;5029726;28;20137;-33
2022/06/13 03:30:38;;;;;;;19.48;7.40;;;14.60;99.90;;;;;;5031878;28;20053;-33
2022/06/13 03:35:51;;;;;;;17.48;6.97;;;14.60;99.90;;;;;;5030392;28;20081;-34
2022/06/13 03:38:21;;;;;;;17.52;6.32;;;14.60;99.90;;;;;;5029709;28;20084;-34
2022/06/13 03:40:49;;;;;;;12.57;5.50;;;14.60;99.90;;;;;;5029930;28;20053;-34
2022/06/13 03:43:18;;;;;;;16.55;5.93;;;14.60;99.90;;;;;;5029888;28;20474;-34
2022/06/13 03:45:47;;;;;;;15.07;5.63;;;14.60;99.90;;;;;;5032680;28;20091;-35
2022/06/13 03:48:15;;;;;;;17.33;6.57;;;14.70;99.90;;;;;;5034792;28;20449;-34
2022/06/13 03:50:43;;;;;;;17.63;6.30;;;14.60;99.90;;;;;;5035876;28;20100;-34
2022/06/13 03:53:14;;;;;;;15.18;5.30;;;14.70;99.90;;;;;;5034829;28;20123;-34
2022/06/13 03:55:45;;;;;;;15.70;5.70;;;14.60;99.90;;;;;;5034095;28;20382;-33
2022/06/13 03:58:13;;;;;;;15.30;5.28;;;14.60;99.90;;;;;;5035482;28;20485;-33
2022/06/13 04:00:42;;;;;;;14.35;5.85;;;14.70;99.80;;;;;;5031877;28;20536;-35
2022/06/13 04:03:09;;;;;;;20.83;6.07;;;14.70;99.80;;;;;;5032894;28;20041;-34
2022/06/13 04:05:37;;;;;;;15.35;5.82;;;14.70;99.80;;;;;;5034287;28;20460;-34
2022/06/13 04:08:05;;;;;;;14.07;5.65;;;14.70;99.90;;;;;;5035236;28;20049;-35
2022/06/13 04:10:32;;;;;;;13.82;5.18;;;14.70;99.90;;;;;;5034860;28;20135;-34
2022/06/13 04:13:09;;;;;;;17.30;5.60;;;14.70;99.90;;;;;;5028936;28;20107;-34
2022/06/13 04:15:53;;;;;;;13.63;4.72;;;14.80;99.90;;;;;;5028658;28;20132;-34
2022/06/13 04:18:25;;;;;;;18.67;5.20;;;14.70;99.90;;;;;;5030713;28;20061;-33
2022/06/13 04:20:56;;;;;;;15.57;5.55;;;14.70;99.90;;;;;;5029607;28;20053;-33
2022/06/13 04:23:25;;;;;;;21.35;5.72;;;14.70;99.90;;;;;;5033487;28;20057;-33
2022/06/13 04:25:54;;;;;;;15.60;4.95;;;14.70;99.90;;;;;;5033345;28;20053;-33
2022/06/13 04:28:29;;;;;;;16.55;5.10;;;14.70;99.90;;;;;;5034772;28;20053;-33
2022/06/13 04:30:55;;;;;;;14.70;5.10;;;14.70;99.90;;;;;;5030887;28;20046;-33
2022/06/13 04:33:26;;;;;;;18.25;5.47;;;14.80;99.90;;;;;;5034735;28;20550;-33
2022/06/13 04:35:53;;;;;;;10.27;4.72;;;14.80;99.90;;;;;;5034353;28;20077;-33
2022/06/13 04:38:20;;;;;;;15.95;5.63;;;14.80;99.90;;;;;;5033403;28;20053;-33
2022/06/13 04:40:49;;;;;;;13.00;4.88;;;14.90;99.90;;;;;;5032781;28;20077;-34
2022/06/13 04:43:16;;;;;;;13.98;5.43;;;14.90;99.90;;;;;;5030757;28;20085;-33
2022/06/13 04:45:49;;;;;;;12.95;5.18;;;14.90;99.90;;;;;;5032451;28;20131;-33
2022/06/13 04:48:16;;;;;;;17.42;5.35;;;14.90;99.90;;;;;;5033308;28;20145;-33
2022/06/13 04:50:45;;;;;;;20.05;5.97;;;14.90;99.90;;;;;;5033929;28;20084;-33
2022/06/13 04:53:14;;;;;;;18.48;6.13;;;15.00;99.90;;;;;;5033515;28;20077;-33
2022/06/13 04:55:42;;;;;;;20.30;6.00;;;15.00;99.90;;;;;;5032702;28;20144;-34
2022/06/13 04:58:13;;;;;;;12.73;4.95;;;15.00;99.90;;;;;;5032426;28;20397;-33
2022/06/13 05:00:40;;;;;;;14.23;4.95;;;15.00;99.90;;;;;;5030919;28;20046;-33
2022/06/13 05:03:16;;;;;;;14.48;5.20;;;15.10;99.90;;;;;;5036594;28;20091;-33
2022/06/13 05:05:46;;;;;;;15.40;5.43;;;15.10;99.90;;;;;;5034815;28;20095;-33
2022/06/13 05:08:14;;;;;;;14.73;5.40;;;15.20;99.90;;;;;;5030499;28;20060;-33
2022/06/13 05:10:41;;;;;;;18.25;5.63;;;15.20;99.90;;;;;;5032755;28;20073;-34
2022/06/13 05:13:08;;;;;;;13.40;5.25;;;15.30;99.90;;;;;;5029123;28;20076;-34
2022/06/13 05:15:35;;;;;;;14.23;5.20;;;15.30;99.90;;;;;;5030568;28;20137;-34
2022/06/13 05:18:25;;;;;;;12.38;4.82;;;15.40;99.90;;;;;;5033929;28;20145;-34
2022/06/13 05:20:59;;;;;;;15.13;4.13;;;15.40;99.90;;;;;;5034214;28;20049;-34
2022/06/13 05:23:52;;;;;;;16.58;4.53;;;15.40;99.90;;;;;;5033107;28;20142;-34
2022/06/13 05:26:18;;;;;;;12.73;4.13;;;15.50;99.90;;;;;;5033439;28;20138;-34
2022/06/13 05:28:45;;;;;;;16.80;3.97;;;15.50;99.90;;;;;;5031147;28;20103;-34
2022/06/13 05:31:16;;;;;;;14.18;4.25;;;15.50;99.80;;;;;;5031941;28;20095;-34
2022/06/13 05:33:43;;;;;;;9.73;3.67;;;15.60;99.70;;;;;;5033527;28;20085;-34
2022/06/13 05:36:13;;;;;;;12.57;3.92;;;15.60;99.50;;;;;;5033538;28;20081;-34
2022/06/13 05:38:41;;;;;;;14.85;3.78;;;15.70;99.40;;;;;;5034184;28;20137;-34
2022/06/13 05:41:08;;;;;;;12.80;4.13;;;15.80;99.30;;;;;;5034366;28;20050;-35
2022/06/13 05:43:35;;;;;;;12.43;4.15;;;15.80;99.10;;;;;;5033870;28;20041;-35
2022/06/13 05:46:02;;;;;;;12.05;3.83;;;15.90;99.00;;;;;;5033887;28;20089;-34
2022/06/13 05:48:28;;;;;;;8.73;3.67;;;16.00;98.70;;;;;;5033101;28;20081;-34
2022/06/13 05:50:55;;;;;;;14.70;4.13;;;16.10;98.50;;;;;;5034016;28;20049;-35
2022/06/13 05:53:25;;;;;;;11.38;3.92;;;16.20;98.40;;;;;;5032626;28;20409;-35
2022/06/13 05:55:52;;;;;;;11.05;3.72;;;16.30;97.90;;;;;;5032268;28;20100;-35
2022/06/13 05:58:19;;;;;;;11.18;3.75;;;16.40;97.70;;;;;;5032398;28;20053;-34
2022/06/13 06:00:50;;;;;;;11.50;3.90;;;16.40;97.70;;;;;;5032354;28;20084;-34
2022/06/13 06:03:17;;;;;;;7.38;3.03;;;16.40;97.80;;;;;;5032866;28;20060;-34
2022/06/13 06:05:44;;;;;;;11.88;3.72;;;16.40;97.60;;;;;;5030501;28;20053;-34
2022/06/13 06:08:14;;;;;;;10.75;3.42;;;16.40;97.60;;;;;;5033773;28;20081;-34
2022/06/13 06:10:42;;;;;;;13.90;3.42;;;16.50;97.60;;;;;;5012787;28;20109;-33
2022/06/13 06:13:09;;;;;;;12.13;2.53;;;16.50;97.20;;;;;;5013502;28;20563;-34
2022/06/13 06:15:36;;;;;;;12.20;3.08;;;16.50;96.70;;;;;;5013933;28;20169;-33
2022/06/13 06:18:03;;;;;;;11.55;3.00;;;16.60;96.60;;;;;;5013485;28;20089;-34
2022/06/13 06:20:30;;;;;;;10.02;3.00;;;16.60;96.40;;;;;;5028188;28;20107;-34
2022/06/13 06:22:56;;;;;;;8.95;2.53;;;16.60;95.90;;;;;;5032309;28;20521;-34
2022/06/13 06:25:23;;;;;;;7.97;2.22;;;16.70;95.90;;;;;;5033439;28;20056;-33
2022/06/13 06:27:51;;;;;;;11.80;3.30;;;16.60;95.80;;;;;;5031964;28;20080;-34
2022/06/13 06:30:18;;;;;;;9.30;2.30;;;16.70;95.90;;;;;;5033782;28;20132;-34
2022/06/13 06:32:46;;;;;;;9.40;2.83;;;16.70;95.70;;;;;;5032306;28;20137;-34
2022/06/13 06:35:13;;;;;;;10.60;2.13;;;16.70;96.10;;;;;;5033162;28;20071;-34
2022/06/13 06:37:40;;;;;;;7.97;2.28;;;16.60;96.30;;;;;;5032065;28;20135;-34
2022/06/13 06:40:08;;;;;;;7.43;2.20;;;16.50;96.30;;;;;;5030957;28;20089;-33
2022/06/13 06:42:35;;;;;;;7.68;1.63;;;16.50;96.70;;;;;;5031962;28;20053;-33
2022/06/13 06:45:03;;;;;;;7.18;1.85;;;16.50;96.80;;;;;;5031878;28;20081;-34
2022/06/13 06:47:30;;;;;;;10.07;2.10;;;16.50;97.10;;;;;;5033228;28;20057;-34
2022/06/13 06:49:57;;;;;;;7.80;2.00;;;16.60;96.80;;;;;;5032170;28;20147;-34
2022/06/13 06:52:24;;;;;;;9.45;2.50;;;16.70;96.70;;;;;;5031742;28;20053;-33
2022/06/13 07:00:31;;;;;;;9.43;2.33;;;16.70;96.60;;;;;;4977407;28;20410;-33
2022/06/13 07:02:58;;;;;;;7.18;2.10;;;16.70;96.50;;;;;;5013410;28;20116;-34
2022/06/13 07:05:24;;;;;;;8.57;2.42;;;16.70;96.80;;;;;;5022909;28;20053;-34
2022/06/13 07:07:52;;;;;;;9.02;2.28;;;16.70;97.00;;;;;;5032649;28;20073;-35
2022/06/13 07:10:20;;;;;;;7.22;2.22;;;16.60;97.40;;;;;;5032059;28;20091;-34
2022/06/13 07:12:47;;;;;;;7.60;2.35;;;16.50;97.90;;;;;;5031543;28;20049;-35
2022/06/13 07:15:13;;;;;;;6.45;1.90;;;16.40;98.40;;;;;;5029888;28;20053;-37
2022/06/13 07:17:42;;;;;;;7.47;2.22;;;16.40;99.00;;;;;;5031730;28;20057;-35
2022/06/13 07:20:10;;;;;;;7.78;2.22;;;16.40;99.20;;;;;;5036263;28;20103;-35
2022/06/13 07:22:37;;;;;;;6.85;1.88;;;16.30;99.40;;;;;;5037873;28;20396;-34
2022/06/13 07:25:04;;;;;;;7.65;2.10;;;16.30;99.40;;;;;;5038182;28;20476;-34
2022/06/13 07:27:32;;;;;;;9.80;2.28;;;16.30;99.40;;;;;;5038117;28;20436;-33
2022/06/13 07:29:58;;;;;;;4.95;1.60;;;16.50;99.80;;;;;;5039292;28;20052;-33
2022/06/13 07:32:26;;;;;;;4.47;1.63;;;16.60;99.70;;;;;;5038270;28;20087;-34
2022/06/13 07:34:54;;;;;;;7.90;1.58;;;16.70;99.30;;;;;;5038803;28;20408;-34
2022/06/13 07:40:03;;;;;;;7.85;1.73;;;17.00;98.50;;;;;;5036116;28;20111;-33
2022/06/13 07:42:30;;;;;;;4.45;1.33;;;17.10;98.20;;;;;;5038275;28;20405;-33
2022/06/13 07:44:57;;;;;;;7.00;1.60;;;17.30;98.00;;;;;;5037944;28;20057;-33
2022/06/13 07:47:24;;;;;;;5.82;1.70;;;17.50;97.80;;;;;;5038247;28;20493;-33
2022/06/13 07:49:51;;;;;;;6.28;1.73;;;17.60;97.80;;;;;;5037671;28;20060;-34
2022/06/13 07:52:19;;;;;;;4.75;1.85;;;17.70;97.40;;;;;;5039484;28;20128;-34
2022/06/13 07:54:46;;;;;;;9.00;1.75;;;17.70;97.20;;;;;;5039027;28;20136;-33
2022/06/13 07:57:13;;;;;;;7.22;1.67;;;17.60;97.10;;;;;;5037288;28;20096;-34
2022/06/13 07:59:40;;;;;;;8.38;1.50;;;17.60;96.70;;;;;;5039305;28;20378;-34
2022/06/13 08:02:09;;;;;;;9.50;1.30;;;17.50;96.90;;;;;;5037076;28;20058;-34
2022/06/13 08:04:36;;;;;;;5.47;1.40;;;17.50;97.10;;;;;;5038801;28;20523;-34
2022/06/13 08:07:03;;;;;;;5.78;1.50;;;17.70;97.00;;;;;;5037795;28;20455;-34
2022/06/13 08:09:31;;;;;;;7.70;1.70;;;17.90;96.50;;;;;;5037712;28;20053;-34
2022/06/13 08:11:58;;;;;;;6.72;1.63;;;18.10;96.10;;;;;;5038388;28;20118;-34
2022/06/13 08:14:25;;;;;;;5.07;1.60;;;18.10;96.20;;;;;;5037196;28;20085;-41
2022/06/13 08:16:53;;;;;;;6.30;1.67;;;18.10;96.20;;;;;;5038009;28;20041;-34
2022/06/13 08:19:19;;;;;;;9.48;2.20;;;18.00;96.10;;;;;;5038600;28;20057;-34
2022/06/13 08:21:46;;;;;;;7.07;1.63;;;17.90;96.40;;;;;;5038589;28;20091;-34
2022/06/13 08:24:13;;;;;;;7.03;1.40;;;17.90;96.60;;;;;;5037945;28;20424;-34
2022/06/13 08:26:41;;;;;;;9.27;2.30;;;17.90;96.60;;;;;;5037576;28;20057;-34
2022/06/13 08:29:08;;;;;;;8.02;1.60;;;18.00;96.50;;;;;;5038457;28;20123;-34
2022/06/13 08:31:35;;;;;;;9.77;2.33;;;18.00;96.20;;;;;;5034969;28;20485;-34
2022/06/13 08:34:02;;;;;;;8.52;1.77;;;18.10;96.70;;;;;;5035138;28;20100;-35
2022/06/13 08:36:28;;;;;;;7.95;1.88;;;18.30;96.10;;;;;;5035211;28;20447;-35
2022/06/13 08:38:55;;;;;;;9.95;2.03;;;18.50;95.80;;;;;;5033895;28;20140;-35
2022/06/13 08:41:27;;;;;;;4.90;1.50;;;18.70;95.40;;;;;;5034467;28;20126;-35
2022/06/13 08:43:58;;;;;;;;;;;18.90;94.50;;;;;;5035279;28;20530;-35
2022/06/13 08:46:27;;;;;;;6.88;1.48;;;18.90;93.40;;;;;;5034096;28;20396;-35
2022/06/13 08:48:58;;;;;;;5.43;1.30;;;18.90;93.40;;;;;;5035463;28;20089;-35
2022/06/13 08:51:31;;;;;;;5.28;1.45;;;18.90;93.10;;;;;;5033874;28;20057;-35
2022/06/13 08:53:59;;;;;;;8.73;1.48;;;18.80;92.40;;;;;;5033133;28;20049;-35
2022/06/13 08:56:28;;;;;;;5.53;1.38;;;18.60;91.40;;;;;;5035027;28;20103;-35
2022/06/13 08:58:58;;;;;;;5.47;1.30;;;18.30;91.20;;;;;;5033990;28;20127;-34
2022/06/13 09:01:26;;;;;;;6.10;1.30;;;18.30;91.70;;;;;;5033925;28;20103;-35
2022/06/13 09:03:56;;;;;;;7.97;1.50;;;18.30;91.40;;;;;;5035064;28;20422;-35
2022/06/13 09:06:27;;;;;;;8.95;1.80;;;18.40;91.30;;;;;;5033849;28;20057;-35
2022/06/13 09:08:58;;;;;;;5.53;1.20;;;18.70;91.40;;;;;;5034905;28;20136;-35
2022/06/13 09:11:28;;;;;;;7.82;1.42;;;19.00;91.10;;;;;;5034822;28;20050;-34
2022/06/13 09:13:58;;;;;;;4.10;1.15;;;19.10;90.40;;;;;;5033546;28;20088;-35
2022/06/13 09:16:28;;;;;;;6.47;1.33;;;19.10;89.00;;;;;;5034598;28;20378;-35
2022/06/13 09:18:58;;;;;;;5.63;1.27;;;18.90;88.60;;;;;;5034672;28;20099;-35
2022/06/13 09:21:27;;;;;;;4.78;1.17;;;18.80;88.80;;;;;;5034508;28;20111;-35
2022/06/13 09:23:59;;;;;;;7.88;1.30;;;19.00;89.50;;;;;;5033538;28;20046;-35
2022/06/13 09:26:29;;;;;;;5.53;1.10;;;19.30;87.80;;;;;;5034301;28;20085;-35
2022/06/13 09:28:59;;;;;;;6.75;1.35;;;19.50;86.40;;;;;;5034524;28;20056;-35
2022/06/13 09:31:28;;;;;;;5.45;1.10;;;19.50;83.40;;;;;;5034596;28;20045;-35
2022/06/13 09:33:56;;;;;;;4.20;1.23;;;19.40;82.60;;;;;;5033553;28;20115;-35
2022/06/13 09:36:25;;;;;;;6.55;1.00;;;19.30;82.40;;;;;;5034307;28;20144;-35
2022/06/13 09:38:53;;;;;;;6.63;1.15;;;19.30;83.70;;;;;;5033117;28;20088;-35
2022/06/13 09:41:33;;;;;;;6.18;1.40;;;19.20;83.70;;;;;;5034152;28;20092;-35
2022/06/13 09:44:07;;;;;;;6.85;1.35;;;19.20;82.60;;;;;;5032822;28;20559;-35
2022/06/13 09:46:36;;;;;;;7.38;1.40;;;19.20;83.50;;;;;;5034410;28;20456;-35
2022/06/13 09:49:08;;;;;;;9.13;1.60;;;19.10;83.60;;;;;;5033980;28;20136;-35
2022/06/13 09:51:42;;;;;;;8.55;1.70;;;19.00;83.70;;;;;;5032837;28;20068;-35
2022/06/13 09:54:12;;;;;;;8.25;1.40;;;18.90;84.40;;;;;;5032127;28;20093;-35
2022/06/13 09:56:42;;;;;;;5.50;1.40;;;19.00;85.10;;;;;;5032879;28;20144;-35
2022/06/13 09:59:33;;;;;;;6.03;1.25;;;19.10;85.10;;;;;;5033869;28;20088;-34
2022/06/13 10:02:01;;;;;;;6.75;1.45;;;19.50;82.50;;;;;;5033754;28;20041;-34
2022/06/13 10:04:33;;;;;;;7.65;1.42;;;19.70;81.80;;;;;;5033809;28;20103;-34
2022/06/13 10:07:03;;;;;;;8.07;1.42;;;19.70;80.60;;;;;;5032215;28;20088;-34
2022/06/13 10:09:34;;;;;;;10.25;1.45;;;19.60;81.00;;;;;;5013152;28;20075;-34
2022/06/13 10:12:03;;;;;;;9.10;1.98;;;19.50;81.30;;;;;;5017450;28;20128;-35
2022/06/13 10:14:48;;;;;;;5.35;1.20;;;19.50;81.00;;;;;;5033523;28;20440;-34
2022/06/13 10:17:26;;;;;;;6.88;1.40;;;19.60;80.20;;;;;;5032493;28;20065;-34
2022/06/13 10:19:56;;;;;;;9.45;1.55;;;19.60;78.80;;;;;;5033642;28;20107;-34
2022/06/13 10:22:27;;;;;;;7.40;1.48;;;19.50;80.20;;;;;;5032448;28;20559;-34
2022/06/13 10:25:00;;;;;;;6.43;1.10;;;19.30;79.30;;;;;;5033438;28;20107;-34
2022/06/13 10:27:31;;;;;;;4.68;1.05;;;19.30;78.90;;;;;;5032247;28;20615;-34
2022/06/13 10:30:11;;;;;;;6.03;1.25;;;19.50;79.80;;;;;;5030174;28;20111;-34
2022/06/13 10:32:45;;;;;;;5.80;1.25;;;19.90;80.60;;;;;;5032249;28;20045;-35
2022/06/13 10:35:18;;;;;;;6.55;1.50;;;20.10;79.00;;;;;;5032389;28;20111;-35
2022/06/13 10:37:51;;;;;;;7.22;1.58;;;20.40;77.30;;;;;;5033073;28;20093;-34
2022/06/13 10:40:17;;;;;;;6.80;1.83;;;20.60;75.50;;;;;;5033348;28;20092;-34
2022/06/13 10:42:45;;;;;;;9.00;1.65;;;20.60;75.50;;;;;;5032883;28;20084;-34
2022/06/13 10:45:14;;;;;;;9.80;1.63;;;20.60;75.10;;;;;;5033396;28;20050;-34
2022/06/13 10:47:45;;;;;;;8.35;1.70;;;20.50;75.20;;;;;;5032237;28;20103;-34
2022/06/13 10:50:13;;;;;;;9.77;1.70;;;20.30;75.60;;;;;;5031417;28;20053;-34
2022/06/13 10:52:43;;;;;;;10.75;1.80;;;20.10;78.10;;;;;;5031888;28;20466;-34
2022/06/13 10:55:11;;;;;;;8.57;1.73;;;20.00;81.00;;;;;;5032522;28;20077;-34
2022/06/13 10:57:40;;;;;;;10.35;1.85;;;20.00;82.60;;;;;;5032985;28;20053;-34
2022/06/13 11:00:18;;;;;;;11.25;2.25;;;20.20;82.40;;;;;;5029641;28;20064;-34
2022/06/13 11:02:45;;;;;;;5.30;1.50;;;20.30;82.70;;;;;;5030276;28;20084;-34
2022/06/13 11:05:13;;;;;;;8.20;1.50;;;20.30;82.30;;;;;;5030115;28;20057;-35
2022/06/13 11:07:46;;;;;;;9.32;1.83;;;20.30;82.80;;;;;;5031853;28;20052;-34
2022/06/13 11:10:29;;;;;;;10.32;1.75;;;20.20;83.20;;;;;;5030335;28;20494;-34
2022/06/13 11:12:56;;;;;;;8.05;1.50;;;20.20;83.80;;;;;;5032802;28;20049;-34
2022/06/13 11:23:50;;;;;;;9.75;1.77;;;19.70;83.20;;;;;;5030985;28;20407;-34
2022/06/13 11:28:57;;;;;;;10.40;1.70;;;20.00;82.90;;;;;;5028641;28;20058;-34
2022/06/13 11:31:26;;;;;;;8.13;1.55;;;20.20;83.10;;;;;;5032109;28;20303;-34
2022/06/13 11:33:54;;;;;;;6.57;1.58;;;20.50;82.70;;;;;;5031433;28;20053;-34
2022/06/13 11:36:23;;;;;;;6.20;1.48;;;20.50;81.50;;;;;;5030586;28;20057;-34
2022/06/13 11:38:55;;;;;;;8.18;1.30;;;20.60;82.00;;;;;;5026726;28;20081;-34
2022/06/13 11:41:23;;;;;;;7.65;1.90;;;20.70;82.50;;;;;;5014143;28;20080;-34
2022/06/13 11:43:52;;;;;;;6.88;1.73;;;20.90;81.40;;;;;;5026945;28;20454;-34
2022/06/13 11:46:36;;;;;;;8.63;1.70;;;21.10;80.10;;;;;;5022170;28;20049;-35
2022/06/13 11:49:07;;;;;;;9.05;1.90;;;21.10;80.60;;;;;;5028499;28;20080;-35
2022/06/13 11:51:40;;;;;;;8.65;1.45;;;21.10;81.00;;;;;;5029861;28;20049;-35
2022/06/13 11:54:06;;;;;;;8.25;1.80;;;21.00;80.70;;;;;;5026464;28;20487;-35
2022/06/13 11:56:34;;;;;;;8.73;1.58;;;21.10;80.40;;;;;;5034378;28;20077;-34
2022/06/13 11:59:03;;;;;;;7.88;1.70;;;21.10;79.10;;;;;;5030049;28;20121;-35
2022/06/13 12:01:32;;;;;;;9.05;1.90;;;21.00;78.70;;;;;;5030616;28;20445;-35
2022/06/13 12:04:05;;;;;;;10.85;1.60;;;20.90;77.40;;;;;;5031222;28;20045;-34
2022/06/13 12:06:37;;;;;;;7.85;1.83;;;20.80;77.70;;;;;;5031503;28;20103;-35
2022/06/13 12:09:06;;;;;;;9.80;1.55;;;20.70;79.20;;;;;;5035199;28;20100;-36
2022/06/13 12:11:33;;;;;;;6.45;1.60;;;20.80;79.60;;;;;;5032768;28;20131;-36
2022/06/13 12:14:01;;;;;;;9.80;1.73;;;20.80;79.80;;;;;;5035000;28;20081;-34
2022/06/13 12:16:35;;;;;;;10.75;1.92;;;20.90;79.50;;;;;;5033121;28;20045;-35
2022/06/13 12:19:15;;;;;;;6.95;1.55;;;21.20;77.90;;;;;;5034273;28;20115;-35
2022/06/13 12:21:45;;;;;;;10.75;1.83;;;21.30;76.50;;;;;;5031429;28;20041;-34
2022/06/13 12:24:18;;;;;;;6.38;1.55;;;21.20;75.20;;;;;;5030318;28;20057;-35
2022/06/13 12:26:49;;;;;;;6.65;1.88;;;21.20;74.60;;;;;;5028767;28;20053;-34
2022/06/13 12:29:19;;;;;;;;;;;21.10;75.40;;;;;;5029761;28;20088;-34
2022/06/13 12:31:49;;;;;;;11.73;2.00;;;21.00;74.80;;;;;;5030105;28;20023;-35
2022/06/13 12:34:24;;;;;;;9.30;1.85;;;21.00;75.60;;;;;;5034492;28;20453;-35
2022/06/13 12:37:15;;;;;;;6.00;1.65;;;21.20;75.20;;;;;;5030818;28;20123;-35
2022/06/13 12:39:55;;;;;;;10.27;2.30;;;21.20;74.30;;;;;;5027811;28;20153;-35
2022/06/13 12:42:46;;;;;;;7.75;1.40;;;21.10;74.50;;;;;;5032055;28;20166;-35
2022/06/13 12:45:49;;;;;;;13.20;1.70;;;21.00;73.90;;;;;;5031167;28;20128;-34
2022/06/13 12:48:35;;;;;;;10.98;1.90;;;20.90;74.40;;;;;;5031355;28;20154;-35
2022/06/13 12:51:08;;;;;;;11.73;2.25;;;20.90;74.90;;;;;;5030998;28;20060;-34
2022/06/13 12:53:48;;;;;;;7.65;2.00;;;20.90;75.00;;;;;;5019863;28;20554;-35
2022/06/13 12:56:20;;;;;;;7.13;1.67;;;21.00;74.60;;;;;;5028002;28;20521;-34
2022/06/13 12:58:55;;;;;;;7.68;1.50;;;21.00;74.80;;;;;;5031248;28;20060;-34
2022/06/13 13:01:23;;;;;;;6.10;1.73;;;21.00;75.80;;;;;;5032348;28;20045;-34
2022/06/13 13:04:15;;;;;;;5.07;1.45;;;20.90;74.20;;;;;;5032460;28;20440;-35
2022/06/13 13:06:47;;;;;;;6.70;1.48;;;20.90;74.20;;;;;;5029287;28;20049;-34
2022/06/13 13:09:23;;;;;;;5.97;1.40;;;20.90;73.90;;;;;;5014780;28;20100;-34
2022/06/13 13:12:13;;;;;;;7.30;1.50;;;21.00;74.30;;;;;;5031050;28;20053;-34
2022/06/13 13:14:44;;;;;;;8.65;2.10;;;21.10;73.70;;;;;;5017179;28;20489;-34
2022/06/13 13:17:18;;;;;;;7.60;1.35;;;21.20;73.60;;;;;;5032167;28;20124;-33
2022/06/13 13:19:49;;;;;;;6.70;1.83;;;21.30;71.60;;;;;;5032559;28;20041;-34
2022/06/13 13:22:20;;;;;;;6.10;1.67;;;21.30;71.40;;;;;;5034238;28;20595;-34
2022/06/13 13:24:50;;;;;;;;;;;21.10;71.30;;;;;;5031448;28;20049;-34